Aviation Digital Data Service (ADDS)

Output produced by METARs form (2217 UTC 16 February 2019)
found at http://www.aviationweather.gov/metar/data/
 
METAR text: FMCH 161800Z 08004KT 9999 FEW020 26/25 Q1014 NOSIG
Conditions at: FMCH (MORONI/HAHAIA IN, KM) observed 1800 UTC 16 February 2019
Temperature: 26.0°C (79°F)
Dewpoint: 25.0°C (77°F) [RH = 94%]
Pressure (altimeter): 29.94 inches Hg (1014.0 mb)
Winds: from the E (80 degrees) at 5 MPH (4 knots; 2.1 m/s)
Visibility: 6 or more miles (10+ km)
Ceiling: at least 12,000 feet AGL
Clouds: few clouds at 2000 feet AGL
Weather: no significant weather observed at this time

METAR text: FMCH 161700Z 07004KT 9999 FEW021 27/25 Q1013 NOSIG
Conditions at: FMCH (MORONI/HAHAIA IN, KM) observed 1700 UTC 16 February 2019
Temperature: 27.0°C (81°F)
Dewpoint: 25.0°C (77°F) [RH = 89%]
Pressure (altimeter): 29.91 inches Hg (1013.0 mb)
Winds: from the ENE (70 degrees) at 5 MPH (4 knots; 2.1 m/s)
Visibility: 6 or more miles (10+ km)
Ceiling: at least 12,000 feet AGL
Clouds: few clouds at 2100 feet AGL
Weather: no significant weather observed at this time

METAR text: FMCH 161600Z 07003KT 9999 SCT021 28/26 Q1013 NOSIG
Conditions at: FMCH (MORONI/HAHAIA IN, KM) observed 1600 UTC 16 February 2019
Temperature: 28.0°C (82°F)
Dewpoint: 26.0°C (79°F) [RH = 89%]
Pressure (altimeter): 29.91 inches Hg (1013.0 mb)
Winds: from the ENE (70 degrees) at 3 MPH (3 knots; 1.5 m/s)
Visibility: 6 or more miles (10+ km)
Ceiling: at least 12,000 feet AGL
Clouds: scattered clouds at 2100 feet AGL
Weather: no significant weather observed at this time

METAR text: FMCH 161500Z 07003KT 9999 SCT022 29/26 Q1012 NOSIG
Conditions at: FMCH (MORONI/HAHAIA IN, KM) observed 1500 UTC 16 February 2019
Temperature: 29.0°C (84°F)
Dewpoint: 26.0°C (79°F) [RH = 84%]
Pressure (altimeter): 29.88 inches Hg (1012.0 mb)
Winds: from the ENE (70 degrees) at 3 MPH (3 knots; 1.5 m/s)
Visibility: 6 or more miles (10+ km)
Ceiling: at least 12,000 feet AGL
Clouds: scattered clouds at 2200 feet AGL
Weather: no significant weather observed at this time

METAR text: FMCH 161400Z VRB03KT 9999 -SHRA SCT020TCU BKN026 29/12 Q1012 TEMPO 4000 SHRA
Conditions at: FMCH (MORONI/HAHAIA IN, KM) observed 1400 UTC 16 February 2019
Temperature: 29.0°C (84°F)
Dewpoint: 12.0°C (54°F) [RH = 35%]
Pressure (altimeter): 29.88 inches Hg (1012.0 mb)
Winds: variable direction winds at 3 MPH (3 knots; 1.5 m/s)
Visibility: 6 or more miles (10+ km)
Ceiling: 2600 feet AGL
Clouds: scattered clouds at 2000 feet AGL
broken clouds at 2600 feet AGL
Weather: -SHRA  (light rain showers)

METAR text: FMCH 161300Z 00000KT 9999 SCT020TCU 29/26 Q1012 NOSIG
Conditions at: FMCH (MORONI/HAHAIA IN, KM) observed 1300 UTC 16 February 2019
Temperature: 29.0°C (84°F)
Dewpoint: 26.0°C (79°F) [RH = 84%]
Pressure (altimeter): 29.88 inches Hg (1012.0 mb)
Winds: calm
Visibility: 6 or more miles (10+ km)
Ceiling: at least 12,000 feet AGL
Clouds: scattered clouds at 2000 feet AGL
Weather: no significant weather observed at this time

METAR text: FMCH 161200Z 19004KT 150V250 8000 -TSSHRA FEW020CB BKN027 26/25 Q1012 NOSIG
Conditions at: FMCH (MORONI/HAHAIA IN, KM) observed 1200 UTC 16 February 2019
Temperature: 26.0°C (79°F)
Dewpoint: 25.0°C (77°F) [RH = 94%]
Pressure (altimeter): 29.88 inches Hg (1012.0 mb)
Winds: from the S (190 degrees) at 5 MPH (4 knots; 2.1 m/s)
Visibility: 5 miles ( 8 km)
Ceiling: 2700 feet AGL
Clouds: few clouds at 2000 feet AGL
broken clouds at 2700 feet AGL
Weather: SHRA TS  (rain showers, thunderstorm)

METAR text: FMCH 161100Z 12006KT 6000 SHRA FEW020CB BKN027 27/25 Q1013 TEMPO 4000 SHRA
Conditions at: FMCH (MORONI/HAHAIA IN, KM) observed 1100 UTC 16 February 2019
Temperature: 27.0°C (81°F)
Dewpoint: 25.0°C (77°F) [RH = 89%]
Pressure (altimeter): 29.91 inches Hg (1013.0 mb)
Winds: from the ESE (120 degrees) at 7 MPH (6 knots; 3.1 m/s)
Visibility: 4 miles ( 6 km)
Ceiling: 2700 feet AGL
Clouds: few clouds at 2000 feet AGL
broken clouds at 2700 feet AGL
Weather: SHRA  (rain showers)

METAR text: FMCH 161000Z 33006KT 9999 TS FEW020CB SCT030 30/25 Q1013 TEMPO TSRA
Conditions at: FMCH (MORONI/HAHAIA IN, KM) observed 1000 UTC 16 February 2019
Temperature: 30.0°C (86°F)
Dewpoint: 25.0°C (77°F) [RH = 75%]
Pressure (altimeter): 29.91 inches Hg (1013.0 mb)
Winds: from the NNW (330 degrees) at 7 MPH (6 knots; 3.1 m/s)
Visibility: 6 or more miles (10+ km)
Ceiling: at least 12,000 feet AGL
Clouds: few clouds at 2000 feet AGL
scattered clouds at 3000 feet AGL
Weather: TS  (thunderstorm)

METAR text: FMCH 160900Z 34010KT 9999 FEW020TCU SCT030 30/25 Q1014 TEMPO SHRA
Conditions at: FMCH (MORONI/HAHAIA IN, KM) observed 0900 UTC 16 February 2019
Temperature: 30.0°C (86°F)
Dewpoint: 25.0°C (77°F) [RH = 75%]
Pressure (altimeter): 29.94 inches Hg (1014.0 mb)
Winds: from the NNW (340 degrees) at 12 MPH (10 knots; 5.1 m/s)
Visibility: 6 or more miles (10+ km)
Ceiling: at least 12,000 feet AGL
Clouds: few clouds at 2000 feet AGL
scattered clouds at 3000 feet AGL
Weather: no significant weather observed at this time

METAR text: FMCH 160800Z 34010KT 9999 FEW020TCU 31/26 Q1014 NOSIG
Conditions at: FMCH (MORONI/HAHAIA IN, KM) observed 0800 UTC 16 February 2019
Temperature: 31.0°C (88°F)
Dewpoint: 26.0°C (79°F) [RH = 75%]
Pressure (altimeter): 29.94 inches Hg (1014.0 mb)
Winds: from the NNW (340 degrees) at 12 MPH (10 knots; 5.1 m/s)
Visibility: 6 or more miles (10+ km)
Ceiling: at least 12,000 feet AGL
Clouds: few clouds at 2000 feet AGL
Weather: no significant weather observed at this time

METAR text: FMCH 160700Z 35010KT 9999 FEW020 31/25 Q1014 NOSIG
Conditions at: FMCH (MORONI/HAHAIA IN, KM) observed 0700 UTC 16 February 2019
Temperature: 31.0°C (88°F)
Dewpoint: 25.0°C (77°F) [RH = 71%]
Pressure (altimeter): 29.94 inches Hg (1014.0 mb)
Winds: from the N (350 degrees) at 12 MPH (10 knots; 5.1 m/s)
Visibility: 6 or more miles (10+ km)
Ceiling: at least 12,000 feet AGL
Clouds: few clouds at 2000 feet AGL
Weather: no significant weather observed at this time

METAR text: FMCH 160600Z 30005KT 9999 FEW020 30/24 Q1014 NOSIG
Conditions at: FMCH (MORONI/HAHAIA IN, KM) observed 0600 UTC 16 February 2019
Temperature: 30.0°C (86°F)
Dewpoint: 24.0°C (75°F) [RH = 70%]
Pressure (altimeter): 29.94 inches Hg (1014.0 mb)
Winds: from the WNW (300 degrees) at 6 MPH (5 knots; 2.6 m/s)
Visibility: 6 or more miles (10+ km)
Ceiling: at least 12,000 feet AGL
Clouds: few clouds at 2000 feet AGL
Weather: no significant weather observed at this time

METAR text: FMCH 160500Z 01004KT 9999 FEW020 29/25 Q1014 NOSIG
Conditions at: FMCH (MORONI/HAHAIA IN, KM) observed 0500 UTC 16 February 2019
Temperature: 29.0°C (84°F)
Dewpoint: 25.0°C (77°F) [RH = 79%]
Pressure (altimeter): 29.94 inches Hg (1014.0 mb)
Winds: from the N (10 degrees) at 5 MPH (4 knots; 2.1 m/s)
Visibility: 6 or more miles (10+ km)
Ceiling: at least 12,000 feet AGL
Clouds: few clouds at 2000 feet AGL
Weather: no significant weather observed at this time

METAR text: FMCH 160400Z 09005KT 9999 FEW020 26/23 Q1014 NOSIG
Conditions at: FMCH (MORONI/HAHAIA IN, KM) observed 0400 UTC 16 February 2019
Temperature: 26.0°C (79°F)
Dewpoint: 23.0°C (73°F) [RH = 84%]
Pressure (altimeter): 29.94 inches Hg (1014.0 mb)
Winds: from the E (90 degrees) at 6 MPH (5 knots; 2.6 m/s)
Visibility: 6 or more miles (10+ km)
Ceiling: at least 12,000 feet AGL
Clouds: few clouds at 2000 feet AGL
Weather: no significant weather observed at this time

METAR text: FMCH 160300Z 11006KT 9999 FEW020 26/23 Q1013 NOSIG
Conditions at: FMCH (MORONI/HAHAIA IN, KM) observed 0300 UTC 16 February 2019
Temperature: 26.0°C (79°F)
Dewpoint: 23.0°C (73°F) [RH = 84%]
Pressure (altimeter): 29.91 inches Hg (1013.0 mb)
Winds: from the ESE (110 degrees) at 7 MPH (6 knots; 3.1 m/s)
Visibility: 6 or more miles (10+ km)
Ceiling: at least 12,000 feet AGL
Clouds: few clouds at 2000 feet AGL
Weather: no significant weather observed at this time

METAR text: FMCH 152200Z 10004KT 9999 FEW020 BKN040 26/24 Q1014 NOSIG
Conditions at: FMCH (MORONI/HAHAIA IN, KM) observed 2200 UTC 15 February 2019
Temperature: 26.0°C (79°F)
Dewpoint: 24.0°C (75°F) [RH = 89%]
Pressure (altimeter): 29.94 inches Hg (1014.0 mb)
Winds: from the E (100 degrees) at 5 MPH (4 knots; 2.1 m/s)
Visibility: 6 or more miles (10+ km)
Ceiling: 4000 feet AGL
Clouds: few clouds at 2000 feet AGL
broken clouds at 4000 feet AGL
Weather: no significant weather observed at this time

METAR text: FMCH 152100Z 10004KT 9999 FEW020 BKN040 27/24 Q1014 NOSIG
Conditions at: FMCH (MORONI/HAHAIA IN, KM) observed 2100 UTC 15 February 2019
Temperature: 27.0°C (81°F)
Dewpoint: 24.0°C (75°F) [RH = 84%]
Pressure (altimeter): 29.94 inches Hg (1014.0 mb)
Winds: from the E (100 degrees) at 5 MPH (4 knots; 2.1 m/s)
Visibility: 6 or more miles (10+ km)
Ceiling: 4000 feet AGL
Clouds: few clouds at 2000 feet AGL
broken clouds at 4000 feet AGL
Weather: no significant weather observed at this time

METAR text: FMCH 152000Z 10004KT 9999 FEW020 BKN025 27/24 Q1015 NOSIG
Conditions at: FMCH (MORONI/HAHAIA IN, KM) observed 2000 UTC 15 February 2019
Temperature: 27.0°C (81°F)
Dewpoint: 24.0°C (75°F) [RH = 84%]
Pressure (altimeter): 29.97 inches Hg (1015.0 mb)
Winds: from the E (100 degrees) at 5 MPH (4 knots; 2.1 m/s)
Visibility: 6 or more miles (10+ km)
Ceiling: 2500 feet AGL
Clouds: few clouds at 2000 feet AGL
broken clouds at 2500 feet AGL
Weather: no significant weather observed at this time

METAR text: FMCH 151900Z 10005KT 9999 FEW020 27/23 Q1015 NOSIG
Conditions at: FMCH (MORONI/HAHAIA IN, KM) observed 1900 UTC 15 February 2019
Temperature: 27.0°C (81°F)
Dewpoint: 23.0°C (73°F) [RH = 79%]
Pressure (altimeter): 29.97 inches Hg (1015.0 mb)
Winds: from the E (100 degrees) at 6 MPH (5 knots; 2.6 m/s)
Visibility: 6 or more miles (10+ km)
Ceiling: at least 12,000 feet AGL
Clouds: few clouds at 2000 feet AGL
Weather: no significant weather observed at this time

METAR text: FMCH 151800Z 09006KT 9999 SCT020 27/24 Q1014 NOSIG
Conditions at: FMCH (MORONI/HAHAIA IN, KM) observed 1800 UTC 15 February 2019
Temperature: 27.0°C (81°F)
Dewpoint: 24.0°C (75°F) [RH = 84%]
Pressure (altimeter): 29.94 inches Hg (1014.0 mb)
Winds: from the E (90 degrees) at 7 MPH (6 knots; 3.1 m/s)
Visibility: 6 or more miles (10+ km)
Ceiling: at least 12,000 feet AGL
Clouds: scattered clouds at 2000 feet AGL
Weather: no significant weather observed at this time

METAR text: FMCH 151700Z 12005KT 9999 SCT020 28/25 Q1013 NOSIG
Conditions at: FMCH (MORONI/HAHAIA IN, KM) observed 1700 UTC 15 February 2019
Temperature: 28.0°C (82°F)
Dewpoint: 25.0°C (77°F) [RH = 84%]
Pressure (altimeter): 29.91 inches Hg (1013.0 mb)
Winds: from the ESE (120 degrees) at 6 MPH (5 knots; 2.6 m/s)
Visibility: 6 or more miles (10+ km)
Ceiling: at least 12,000 feet AGL
Clouds: scattered clouds at 2000 feet AGL
Weather: no significant weather observed at this time

METAR text: FMCH 151600Z 36001KT 9999 SCT020 29/25 Q1013 NOSIG
Conditions at: FMCH (MORONI/HAHAIA IN, KM) observed 1600 UTC 15 February 2019
Temperature: 29.0°C (84°F)
Dewpoint: 25.0°C (77°F) [RH = 79%]
Pressure (altimeter): 29.91 inches Hg (1013.0 mb)
Winds: from the N (360 degrees) at 1 MPH (1 knots; 0.5 m/s)
Visibility: 6 or more miles (10+ km)
Ceiling: at least 12,000 feet AGL
Clouds: scattered clouds at 2000 feet AGL
Weather: no significant weather observed at this time

METAR text: FMCH 151500Z 29004KT 9999 SCT020 30/25 Q1013 NOSIG
Conditions at: FMCH (MORONI/HAHAIA IN, KM) observed 1500 UTC 15 February 2019
Temperature: 30.0°C (86°F)
Dewpoint: 25.0°C (77°F) [RH = 75%]
Pressure (altimeter): 29.91 inches Hg (1013.0 mb)
Winds: from the WNW (290 degrees) at 5 MPH (4 knots; 2.1 m/s)
Visibility: 6 or more miles (10+ km)
Ceiling: at least 12,000 feet AGL
Clouds: scattered clouds at 2000 feet AGL
Weather: no significant weather observed at this time

METAR text: FMCH 151400Z 30005KT 9999 SCT020 31/24 Q1012 NOSIG
Conditions at: FMCH (MORONI/HAHAIA IN, KM) observed 1400 UTC 15 February 2019
Temperature: 31.0°C (88°F)
Dewpoint: 24.0°C (75°F) [RH = 66%]
Pressure (altimeter): 29.88 inches Hg (1012.0 mb)
Winds: from the WNW (300 degrees) at 6 MPH (5 knots; 2.6 m/s)
Visibility: 6 or more miles (10+ km)
Ceiling: at least 12,000 feet AGL
Clouds: scattered clouds at 2000 feet AGL
Weather: no significant weather observed at this time

METAR text: FMCH 151300Z 30006KT 9999 SCT020 SCT027 31/25 Q1012 NOSIG
Conditions at: FMCH (MORONI/HAHAIA IN, KM) observed 1300 UTC 15 February 2019
Temperature: 31.0°C (88°F)
Dewpoint: 25.0°C (77°F) [RH = 71%]
Pressure (altimeter): 29.88 inches Hg (1012.0 mb)
Winds: from the WNW (300 degrees) at 7 MPH (6 knots; 3.1 m/s)
Visibility: 6 or more miles (10+ km)
Ceiling: at least 12,000 feet AGL
Clouds: scattered clouds at 2000 feet AGL
scattered clouds at 2700 feet AGL
Weather: no significant weather observed at this time

METAR text: FMCH 151200Z 31005KT 9999 SCT020TCU SCT027 31/24 Q1012 NOSIG
Conditions at: FMCH (MORONI/HAHAIA IN, KM) observed 1200 UTC 15 February 2019
Temperature: 31.0°C (88°F)
Dewpoint: 24.0°C (75°F) [RH = 66%]
Pressure (altimeter): 29.88 inches Hg (1012.0 mb)
Winds: from the NW (310 degrees) at 6 MPH (5 knots; 2.6 m/s)
Visibility: 6 or more miles (10+ km)
Ceiling: at least 12,000 feet AGL
Clouds: scattered clouds at 2000 feet AGL
scattered clouds at 2700 feet AGL
Weather: no significant weather observed at this time

METAR text: FMCH 151100Z 29005KT 9999 SCT020CB SCT027 31/25 Q1012 NOSIG
Conditions at: FMCH (MORONI/HAHAIA IN, KM) observed 1100 UTC 15 February 2019
Temperature: 31.0°C (88°F)
Dewpoint: 25.0°C (77°F) [RH = 71%]
Pressure (altimeter): 29.88 inches Hg (1012.0 mb)
Winds: from the WNW (290 degrees) at 6 MPH (5 knots; 2.6 m/s)
Visibility: 6 or more miles (10+ km)
Ceiling: at least 12,000 feet AGL
Clouds: scattered clouds at 2000 feet AGL
scattered clouds at 2700 feet AGL
Weather: no significant weather observed at this time

Forecast for: FMCH (MORONI/HAHAIA IN, KM)
Text: TAF FMCH 161700Z 1618/1724 08003KT 9999 FEW020
Forecast period: 1800 UTC 16 February 2019 to 0500 UTC 17 February 2019
Forecast type: FROM: standard forecast or significant change
Winds: from the E (80 degrees) at 3 MPH (3 knots; 1.5 m/s)
Visibility: 6 or more miles 10+ km)
Ceiling: at least 12,000 feet AGL
Clouds: few clouds at 2000 feet AGL
Weather: no significant weather forecast for this period
Text: BECMG 1705/1707 29010KT
Forecast period: 0500 to 1600 UTC 17 February 2019
Forecast type: BECOMING: Conditions expected to become as follows by 0700 UTC 17 February 2019
Winds: from the WNW (290 degrees) at 12 MPH (10 knots; 5.1 m/s)
Visibility: 6 or more miles 10+ km)
Ceiling: at least 12,000 feet AGL
Clouds: few clouds at 2000 feet AGL
Weather: no significant weather forecast for this period
Text: PROB40
Forecast period: 1000 to 1600 UTC 17 February 2019
Forecast type: TEMPORARY: The following changes expected for less than half the time period
Visibility: 2.49 miles (4.01 km)
Ceiling: 3000 feet AGL
Clouds: few clouds at 2000 feet AGL
broken clouds at 3000 feet AGL
Weather: TS SHRA  (thunderstorm, rain showers)
Text: TEMPO 1710/1716 4000 TS SHRA FEW020CB BKN030
Forecast period: 1600 UTC 17 February 2019 to 0000 UTC 18 February 2019
Forecast type: BECOMING: Conditions expected to become as follows by 1800 UTC 17 February 2019
Winds: from the E (100 degrees) at 3 MPH (3 knots; 1.5 m/s)
Visibility: 6 or more miles 10+ km)
Ceiling: at least 12,000 feet AGL
Clouds: few clouds at 2000 feet AGL
Weather: no significant weather forecast for this period